Cessnock, New South Wales

8:00 AM AEST on July 31, 2016 (GMT +1000)
mySmart Farm - Hunter Valley | | Change Station

Elev 440 ft 32.82 °S, 151.32 °E | Updated 4 minutes ago

Clear
Clear
48.0 °F
Feels Like 48 °F
N
1.0
Wind Variable Wind from South
Gusts 2.0 mph

Today
High -- | Low -- °F
--% Chance of Precip.
Yesterday
High -- | Low -- °F
Precip. -- in
Pressure 30.06 in
Visibility 6.2 miles
Clouds
Windchill 48 °F
Dew Point 45 °F
Humidity 90%
Rainfall 0.00 in
Snow Depth Not available.
6:45 AM 5:16 PM
Waning Crescent, 11% visible
METAR YWLM 302130Z AUTO 27004KT 230V300 9999 // NCD 08/07 Q1018
Pressure 30.06 in
Visibility 6.2 miles
Clouds
Windchill 48 °F
Dew Point 45 °F
Humidity 90%
Rainfall 0.00 in
Snow Depth Not available.
6:45 AM 5:16 PM
Waning Crescent, 11% visible
METAR YWLM 302130Z AUTO 27004KT 230V300 9999 // NCD 08/07 Q1018

10-Day Weather Forecast

Almanac

Astronomy

Jul. 31, 2016 Rise Set
Actual Time
Civil Twilight
Nautical Twilight
Astronomical Twilight
Moon
Length of Visible Light
Length of Day
Tomorrow will be .
, % of the Moon is Illuminated

Today's Extremes

Country Highs Country Lows

Community

WunderPhotos

Upload Photos

1,928,657 photos uploaded!

WunderBlog® & News

Nearby

Air Quality

  Air Quality AQ Index Pollutant
Not available.

Snow Depth

Station Depth Elevation

Earthquake Activity

City Distance Mag. Time & Date
Minimum magnitude displayed is 2.5.

Coastal Water Temperatures

Place Temperature

Stations

Nearby Weather Stations

Station Location Temp. Windchill Dew Point Humidity Wind Precip. Elev Updated Type